METAR KSVH 192355Z AUTO 29003KT 3SM BR OVC003 01/01 A3013 RMK AO2 
METAR KSVH 192335Z AUTO 00000KT 3SM BR OVC001 01/01 A3012 RMK AO2 
METAR KSVH 192315Z AUTO 00000KT 1 1/2SM BR OVC001 01/01 A3011 RMK AO2 
METAR KSVH 192255Z AUTO 00000KT 1SM BR OVC001 01/00 A3011 RMK AO2 
METAR KSVH 192235Z AUTO 00000KT 1SM BR OVC001 01/00 A3010 RMK AO2 
METAR KSVH 191935Z AUTO 00000KT 1/2SM SN OVC003 01/01 A3011 RMK AO2 P0003 
METAR KSVH 191915Z AUTO 00000KT 1/2SM -SN OVC001 01/01 A3012 RMK AO2 P0001 
METAR KSVH 191855Z AUTO 00000KT 3/4SM -SN OVC001 01/01 A3014 RMK AO2 P0003 
METAR KSVH 191835Z AUTO 00000KT 3/4SM -SN OVC001 01/01 A3012 RMK AO2 P0002 
METAR KSVH 191815Z AUTO 00000KT 1/2SM -SN OVC001 01/01 A3012 RMK AO2 P0002 
METAR KSVH 191755Z AUTO 00000KT 1/4SM SN OVC001 01/01 A3012 RMK AO2 P0004 
METAR KSVH 191735Z AUTO 00000KT 1/2SM -SN OVC003 01/01 A3013 RMK AO2 P0002 
METAR KSVH 191715Z AUTO 00000KT 3/4SM -SN OVC003 01/00 A3019 RMK AO2 P0001 
METAR KSVH 191655Z AUTO 00000KT 1SM -SN OVC007 01/00 A3019 RMK AO2 P0004 
METAR KSVH 191635Z AUTO 05003KT 1 1/4SM -SN BKN007 OVC013 01/00 A3018 RMK AO2 P0003 
METAR KSVH 191615Z AUTO 00000KT 1 1/4SM -SN SCT008 OVC015 01/00 A3020 RMK AO2 P0002 
METAR KSVH 191555Z AUTO 09004KT 5SM -SN SCT010 BKN015 OVC020 02/00 A3019 RMK AO2 P0000 
METAR KSVH 191535Z AUTO 09004KT 10SM -RA SCT017 OVC025 03/00 A3022 RMK AO2 P0000 
METAR KSVH 191515Z AUTO 00000KT 10SM BKN025 OVC031 04/00 A3020 RMK AO2 
METAR KSVH 191455Z AUTO 00000KT 10SM BKN025 BKN033 OVC060 04/01 A3017 RMK AO2 
METAR KSVH 191435Z AUTO 00000KT 10SM SCT023 BKN049 OVC060 04/00 A3019 RMK AO2 
METAR KSVH 191415Z AUTO 00000KT 10SM DZ SCT021 SCT028 OVC035 04/00 A3018 RMK AO2 P0000 
METAR KSVH 191355Z AUTO 00000KT 10SM SCT035 BKN041 OVC055 04/01 A3017 RMK AO2 
METAR KSVH 191335Z AUTO 00000KT 10SM OVC055 03/00 A3017 RMK AO2 
METAR KSVH 191335Z AUTO 00000KT 10SM OVC055 03/00 A3017 RMK AO2 
METAR KSVH 191315Z AUTO 00000KT 10SM OVC055 03/00 A3015 RMK AO2 
METAR KSVH 191255Z AUTO 00000KT 10SM OVC055 03/00 A3015 RMK AO2 
METAR KSVH 191235Z AUTO 00000KT 10SM BKN055 OVC065 03/00 A3013 RMK AO2 
METAR KSVH 191215Z AUTO 00000KT 10SM OVC065 03/00 A3012 RMK AO2 
METAR KSVH 191155Z AUTO 00000KT 10SM OVC065 03/00 A3012 RMK AO2 
METAR KSVH 191135Z AUTO 00000KT 10SM SCT042 SCT048 OVC065 02/00 A3012 RMK AO2 
METAR KSVH 191115Z AUTO 00000KT 10SM SCT046 OVC065 03/00 A3014 RMK AO2 
METAR KSVH 191055Z AUTO 00000KT 10SM OVC065 03/00 A3015 RMK AO2 
METAR KSVH 191035Z AUTO 00000KT 10SM OVC065 02/00 A3014 RMK AO2 
METAR KSVH 191015Z AUTO 00000KT 10SM OVC075 02/00 A3012 RMK AO2 
METAR KSVH 190955Z AUTO 00000KT 10SM BKN075 OVC090 02/00 A3011 RMK AO2 
METAR KSVH 190935Z AUTO 00000KT 10SM SCT075 BKN100 02/00 A3012 RMK AO2 
METAR KSVH 190915Z AUTO 00000KT 10SM SCT075 SCT090 BKN110 02/00 A3013 RMK AO2 
METAR KSVH 190855Z AUTO 00000KT 10SM SCT110 02/00 A3013 RMK AO2 
METAR KSVH 190835Z AUTO 00000KT 10SM CLR 02/00 A3013 RMK AO2 
METAR KSVH 190815Z AUTO 00003KT 10SM SCT090 SCT120 03/00 A3015 RMK AO2 
METAR KSVH 190755Z AUTO 00000KT 10SM OVC090 03/00 A3016 RMK AO2 
METAR KSVH 190735Z AUTO 28003KT 10SM OVC090 03/00 A3018 RMK AO2 
METAR KSVH 190715Z AUTO 00000KT 10SM BKN090 BKN120 03/00 A3014 RMK AO2 
METAR KSVH 190655Z AUTO 00000KT 10SM SCT120 03/00 A3012 RMK AO2 
METAR KSVH 190635Z AUTO 00000KT 10SM SCT090 03/00 A3012 RMK AO2 
METAR KSVH 190615Z AUTO 18003KT 10SM BKN100 02/00 A3014 RMK AO2 
METAR KSVH 190555Z AUTO 00000KT 10SM SCT120 02/00 A3015 RMK AO2 
METAR KSVH 190535Z AUTO 00000KT 10SM SCT120 02/00 A3015 RMK AO2 
METAR KSVH 190515Z AUTO 00000KT 10SM CLR 02/00 A3013 RMK AO2 
METAR KSVH 190455Z AUTO 00000KT 10SM CLR 02/00 A3012 RMK AO2 
METAR KSVH 190435Z AUTO 00000KT 10SM CLR 02/00 A3012 RMK AO2 
METAR KSVH 190415Z AUTO 00000KT 10SM CLR 02/00 A3012 RMK AO2 
METAR KSVH 190355Z AUTO 00000KT 10SM CLR 02/M01 A3012 RMK AO2 
METAR KSVH 190335Z AUTO 00000KT 10SM CLR 02/00 A3012 RMK AO2 
METAR KSVH 190315Z AUTO 00000KT 10SM CLR 03/M01 A3012 RMK AO2 
METAR KSVH 190255Z AUTO 00000KT 10SM SCT110 03/M01 A3013 RMK AO2 
METAR KSVH 190235Z AUTO 00000KT 10SM SCT110 03/M01 A3014 RMK AO2 
METAR KSVH 190215Z AUTO 00000KT 10SM CLR 03/M01 A3016 RMK AO2 
METAR KSVH 190155Z AUTO 00000KT 10SM CLR 03/M01 A3013 RMK AO2 
METAR KSVH 190135Z AUTO 00000KT 10SM SCT090 04/M01 A3015 RMK AO2 
METAR KSVH 190115Z AUTO 00000KT 10SM OVC090 04/M01 A3019 RMK AO2 
METAR KSVH 190055Z AUTO 24003KT 10SM BKN090 04/M01 A3020 RMK AO2 
METAR KSVH 190035Z AUTO 00000KT 10SM CLR 03/M01 A3019 RMK AO2 
METAR KSVH 190015Z AUTO 00000KT 10SM SCT090 03/M01 A3015 RMK AO2 
METAR KSVH 182355Z AUTO 00000KT 10SM OVC090 03/M01 A3015 RMK AO2 
METAR KSVH 182335Z AUTO 00000KT 10SM OVC090 04/M01 A3017 RMK AO2 
METAR KSVH 182315Z AUTO 00000KT 10SM BKN100 04/M01 A3018 RMK AO2 
METAR KSVH 182255Z AUTO 00000KT 10SM SCT100 04/M02 A3016 RMK AO2 
METAR KSVH 182235Z AUTO 00000KT 10SM SCT110 04/M02 A3014 RMK AO2 
METAR KSVH 182215Z AUTO 00000KT 10SM CLR 04/M03 A3015 RMK AO2 
METAR KSVH 182155Z AUTO 00000KT 10SM CLR 04/M03 A3013 RMK AO2 
METAR KSVH 182135Z AUTO 00000KT 10SM CLR 04/M03 A3015 RMK AO2 
METAR KSVH 182115Z AUTO 00000KT 10SM CLR 04/M03 A3017 RMK AO2 
METAR KSVH 182055Z AUTO 00000KT 10SM CLR 04/M04 A3018 RMK AO2 
METAR KSVH 182035Z AUTO 00000KT 10SM CLR 04/M04 A3016 RMK AO2 
METAR KSVH 182015Z AUTO 00000KT 10SM CLR 04/M04 A3016 RMK AO2 
METAR KSVH 181955Z AUTO 00000KT 10SM CLR 04/M05 A3017 RMK AO2 
METAR KSVH 181935Z AUTO 00000KT 10SM CLR 04/M05 A3018 RMK AO2 
METAR KSVH 181915Z AUTO 00000KT 10SM CLR 04/M05 A3019 RMK AO2 
METAR KSVH 181855Z AUTO 00000KT 10SM CLR 04/M05 A3020 RMK AO2 
METAR KSVH 181835Z AUTO 17004KT 10SM CLR 04/M05 A3020 RMK AO2 
METAR KSVH 181815Z AUTO 18005KT 10SM CLR 04/M05 A3019 RMK AO2 
METAR KSVH 181755Z AUTO 00000KT 10SM CLR 03/M05 A3020 RMK AO2 
METAR KSVH 181735Z AUTO 00000KT 10SM CLR 03/M05 A3020 RMK AO2 
METAR KSVH 181715Z AUTO 00000KT 10SM CLR 02/M06 A3023 RMK AO2 
METAR KSVH 181655Z AUTO 00000KT 10SM CLR 02/M06 A3023 RMK AO2 
METAR KSVH 181635Z AUTO 00000KT 10SM CLR 02/M06 A3023 RMK AO2 
METAR KSVH 181615Z AUTO 00000KT 10SM CLR 02/M06 A3025 RMK AO2 
METAR KSVH 181555Z AUTO 00000KT 10SM CLR 02/M05 A3026 RMK AO2 
METAR KSVH 181555Z AUTO 00000KT 10SM CLR 02/M05 A3026 RMK AO2 
METAR KSVH 181535Z AUTO 04003KT 10SM CLR 02/M04 A3027 RMK AO2 
METAR KSVH 181515Z AUTO 07004KT 10SM CLR 02/M05 A3026 RMK AO2 
METAR KSVH 181455Z AUTO 05005KT 10SM CLR 01/M05 A3026 RMK AO2 
METAR KSVH 181435Z AUTO 04004KT 10SM CLR 01/M05 A3027 RMK AO2 
METAR KSVH 181415Z AUTO 07003KT 10SM CLR 01/M04 A3027 RMK AO2 
METAR KSVH 181355Z AUTO 00000KT 10SM CLR 01/M03 A3027 RMK AO2 
METAR KSVH 181335Z AUTO 03003KT 10SM CLR 01/M03 A3026 RMK AO2